Time;durP1;ratioP1;P1;durP2;ratioP2;P2;SDS_P1;SDS_P2;PMS_P1;PMS_P2;Temp;Humidity;BMP_temperature;BMP_pressure;BME280_temperature;BME280_humidity;BME280_pressure;Samples;Min_cycle;Max_cycle;Signal;HPM_P1;HPM_P2
2022/07/09 00:01:26;;;;;;;16.50;14.77;;;22.50;53.70;;;;;;5023200;28;20052;-82
2022/07/09 00:03:52;;;;;;;15.38;14.38;;;22.30;53.80;;;;;;5019387;28;20041;-83
2022/07/09 00:06:18;;;;;;;15.98;14.85;;;22.30;54.20;;;;;;5035530;28;20495;-82
2022/07/09 00:08:44;;;;;;;16.50;15.40;;;22.30;54.00;;;;;;5046089;28;20060;-82
2022/07/09 00:11:11;;;;;;;16.13;15.15;;;22.40;53.80;;;;;;5028895;28;20484;-82
2022/07/09 00:13:37;;;;;;;15.77;14.73;;;22.30;53.80;;;;;;5045625;28;20033;-82
2022/07/09 00:16:03;;;;;;;15.65;14.75;;;22.30;53.90;;;;;;5045003;28;20033;-82
2022/07/09 00:18:29;;;;;;;16.30;15.40;;;22.30;53.90;;;;;;5028792;28;20033;-82
2022/07/09 00:20:55;;;;;;;15.38;14.57;;;22.20;54.00;;;;;;5012507;28;20053;-82
2022/07/09 00:23:21;;;;;;;16.17;15.18;;;22.30;53.80;;;;;;5016644;28;20503;-82
2022/07/09 00:25:47;;;;;;;15.82;14.93;;;22.20;54.00;;;;;;5017399;28;20049;-82
2022/07/09 00:28:13;;;;;;;15.90;14.90;;;22.10;54.20;;;;;;5017302;28;20041;-82
2022/07/09 00:30:40;;;;;;;15.55;14.55;;;22.00;54.50;;;;;;4996332;28;20038;-82
2022/07/09 00:33:06;;;;;;;15.88;14.88;;;21.90;54.50;;;;;;5028833;28;20030;-82
2022/07/09 00:35:32;;;;;;;14.85;14.02;;;21.90;54.70;;;;;;5030560;28;20032;-83
2022/07/09 00:37:58;;;;;;;15.70;14.65;;;21.90;54.90;;;;;;5018357;28;20054;-82
2022/07/09 00:40:24;;;;;;;15.77;14.88;;;21.90;54.80;;;;;;5023994;28;20028;-82
2022/07/09 00:42:50;;;;;;;19.52;18.25;;;21.80;54.80;;;;;;5028171;28;20026;-82
2022/07/09 00:45:17;;;;;;;18.67;17.77;;;21.80;54.70;;;;;;5011531;28;20060;-82
2022/07/09 00:47:43;;;;;;;16.92;16.02;;;21.80;54.80;;;;;;5013468;28;20477;-82
2022/07/09 00:50:09;;;;;;;17.55;16.48;;;21.60;55.10;;;;;;5028560;28;20045;-82
2022/07/09 00:52:36;;;;;;;17.75;16.23;;;21.60;55.20;;;;;;5005111;28;20042;-82
2022/07/09 00:55:02;;;;;;;16.85;15.73;;;21.60;55.30;;;;;;5034071;28;20030;-82
2022/07/09 00:57:28;;;;;;;17.70;16.00;;;21.60;55.30;;;;;;5031325;28;20029;-82
2022/07/09 00:59:55;;;;;;;17.08;16.17;;;21.50;55.30;;;;;;5028431;28;20037;-82
2022/07/09 01:02:22;;;;;;;17.58;16.40;;;21.40;55.60;;;;;;5015733;28;20526;-82
2022/07/09 01:04:48;;;;;;;18.60;17.50;;;21.50;55.60;;;;;;5025024;28;20041;-82
2022/07/09 01:07:14;;;;;;;17.40;16.50;;;21.40;55.60;;;;;;5044668;28;20022;-82
2022/07/09 01:09:40;;;;;;;18.00;16.80;;;21.40;55.50;;;;;;5029488;28;20053;-82
2022/07/09 01:12:07;;;;;;;17.48;16.13;;;21.40;55.40;;;;;;5028431;28;20408;-82
2022/07/09 01:14:33;;;;;;;17.63;16.52;;;21.40;55.30;;;;;;5030448;28;20037;-82
2022/07/09 01:17:00;;;;;;;18.42;17.30;;;21.40;55.50;;;;;;5034155;28;20053;-82
2022/07/09 01:19:27;;;;;;;20.25;19.15;;;21.40;55.50;;;;;;5018102;28;20384;-82
2022/07/09 01:21:53;;;;;;;20.15;18.95;;;21.40;55.40;;;;;;5034498;28;20037;-82
2022/07/09 01:24:20;;;;;;;20.45;19.17;;;21.40;55.30;;;;;;5028376;28;20046;-82
2022/07/09 01:26:46;;;;;;;20.15;18.98;;;21.50;55.20;;;;;;5029731;28;20025;-82
2022/07/09 01:29:12;;;;;;;20.90;19.75;;;21.50;55.10;;;;;;5016822;28;20038;-82
2022/07/09 01:31:38;;;;;;;21.10;19.90;;;21.50;55.10;;;;;;5024331;28;20508;-82
2022/07/09 01:34:04;;;;;;;20.85;19.63;;;21.50;55.10;;;;;;5044260;28;20044;-82
2022/07/09 01:36:30;;;;;;;20.55;19.30;;;21.60;54.70;;;;;;5029433;28;20037;-82
2022/07/09 01:38:56;;;;;;;20.17;19.05;;;21.70;54.50;;;;;;4995352;28;20042;-82
2022/07/09 01:41:22;;;;;;;20.52;19.20;;;21.60;54.50;;;;;;5015616;28;20030;-82
2022/07/09 01:43:49;;;;;;;18.27;17.15;;;21.50;54.90;;;;;;5026387;28;20037;-82
2022/07/09 01:46:15;;;;;;;17.73;16.73;;;21.30;55.40;;;;;;5028542;28;20044;-82
2022/07/09 01:48:42;;;;;;;17.23;16.33;;;21.30;55.50;;;;;;5027871;28;20411;-82
2022/07/09 01:51:11;;;;;;;16.08;15.18;;;21.20;55.60;;;;;;5044561;28;20396;-82
2022/07/09 01:53:39;;;;;;;14.88;14.07;;;21.20;55.90;;;;;;5028907;28;20037;-82
2022/07/09 01:56:09;;;;;;;15.98;14.98;;;21.10;55.90;;;;;;5018433;28;20037;-82
2022/07/09 01:58:35;;;;;;;15.00;14.10;;;21.20;55.90;;;;;;5039794;28;20028;-82
2022/07/09 02:01:02;;;;;;;15.13;13.93;;;21.10;55.90;;;;;;5045566;28;20059;-82
2022/07/09 02:03:28;;;;;;;17.70;16.70;;;21.10;56.80;;;;;;5017718;28;20034;-82
2022/07/09 02:05:54;;;;;;;17.48;16.42;;;21.00;56.20;;;;;;5015114;28;20037;-82
2022/07/09 02:08:20;;;;;;;16.50;15.30;;;21.00;56.30;;;;;;5031935;28;20048;-82
2022/07/09 02:10:46;;;;;;;16.05;14.95;;;21.00;56.40;;;;;;5032501;28;20029;-82
2022/07/09 02:13:12;;;;;;;16.00;14.80;;;20.90;56.50;;;;;;5047735;28;20026;-82
2022/07/09 02:15:39;;;;;;;17.45;16.15;;;20.90;56.60;;;;;;5030385;28;20041;-82
2022/07/09 02:18:05;;;;;;;17.77;16.77;;;20.90;56.50;;;;;;5031031;28;20033;-82
2022/07/09 02:20:32;;;;;;;17.80;16.85;;;20.90;56.70;;;;;;5034601;28;20037;-82
2022/07/09 02:22:58;;;;;;;16.25;15.25;;;20.90;56.50;;;;;;5036471;28;20469;-82
2022/07/09 02:25:24;;;;;;;17.45;16.02;;;20.90;56.70;;;;;;5026236;28;20044;-81
2022/07/09 02:27:50;;;;;;;15.63;14.80;;;20.80;56.60;;;;;;5031907;28;20064;-82
2022/07/09 02:30:16;;;;;;;17.35;15.82;;;20.70;56.90;;;;;;5031479;28;20089;-82
2022/07/09 02:32:42;;;;;;;17.15;16.25;;;20.80;56.70;;;;;;5016008;28;20061;-82
2022/07/09 02:35:08;;;;;;;17.00;15.90;;;20.80;56.60;;;;;;5047393;28;20048;-82
2022/07/09 02:37:35;;;;;;;15.48;14.25;;;20.70;56.80;;;;;;5047427;28;20037;-82
2022/07/09 02:40:01;;;;;;;15.63;14.60;;;20.80;56.80;;;;;;5031823;28;20057;-82
2022/07/09 02:42:27;;;;;;;16.45;15.55;;;20.80;56.80;;;;;;5032158;28;20026;-82
2022/07/09 02:44:53;;;;;;;15.98;14.88;;;20.90;56.50;;;;;;5014742;28;20050;-82
2022/07/09 02:47:19;;;;;;;16.05;15.05;;;20.80;56.70;;;;;;5018079;28;20030;-82
2022/07/09 02:49:45;;;;;;;16.70;15.77;;;20.90;56.30;;;;;;5028611;28;20037;-82
2022/07/09 02:52:11;;;;;;;17.00;15.98;;;20.90;56.40;;;;;;5026923;28;20037;-82
2022/07/09 02:54:37;;;;;;;16.85;15.80;;;20.80;56.40;;;;;;5018340;28;20041;-82
2022/07/09 02:57:04;;;;;;;16.77;15.85;;;20.80;56.30;;;;;;5047135;28;20476;-82
2022/07/09 02:59:30;;;;;;;16.23;15.23;;;20.90;56.10;;;;;;5033365;28;20038;-82
2022/07/09 03:01:56;;;;;;;15.38;14.27;;;21.00;56.20;;;;;;5018494;28;20420;-82
2022/07/09 03:04:22;;;;;;;16.02;15.05;;;20.90;56.30;;;;;;5007383;28;20049;-82
2022/07/09 03:06:48;;;;;;;15.65;14.63;;;20.70;56.70;;;;;;5046954;28;20037;-82
2022/07/09 03:09:14;;;;;;;15.90;14.90;;;20.70;56.60;;;;;;5047026;28;20499;-82
2022/07/09 03:11:42;;;;;;;16.75;15.65;;;20.80;56.50;;;;;;5042928;28;20041;-82
2022/07/09 03:14:08;;;;;;;18.50;17.33;;;20.80;56.60;;;;;;5035441;28;20049;-82
2022/07/09 03:16:34;;;;;;;17.45;16.52;;;20.90;56.40;;;;;;5018439;28;20511;-82
2022/07/09 03:19:00;;;;;;;16.77;15.52;;;21.00;56.00;;;;;;5035310;28;20037;-82
2022/07/09 03:21:26;;;;;;;18.02;16.90;;;20.90;56.10;;;;;;5017480;28;20392;-82
2022/07/09 03:23:52;;;;;;;16.75;15.77;;;20.90;56.10;;;;;;5013775;28;20045;-82
2022/07/09 03:26:18;;;;;;;17.63;16.52;;;20.90;56.20;;;;;;5018463;28;20488;-82
2022/07/09 03:28:44;;;;;;;16.77;15.80;;;20.90;56.10;;;;;;5018171;28;20038;-82
2022/07/09 03:31:11;;;;;;;16.45;15.40;;;20.80;56.50;;;;;;5035053;28;20412;-82
2022/07/09 03:33:37;;;;;;;15.07;14.07;;;20.60;56.90;;;;;;5017169;28;20048;-82
2022/07/09 03:36:03;;;;;;;14.98;13.98;;;20.50;57.40;;;;;;5031318;28;20460;-82
2022/07/09 03:38:29;;;;;;;14.50;13.80;;;20.20;58.10;;;;;;5030821;28;20052;-81
2022/07/09 03:40:56;;;;;;;14.98;13.98;;;20.10;58.30;;;;;;5031281;28;20464;-82
2022/07/09 03:43:22;;;;;;;16.27;15.18;;;20.10;58.50;;;;;;5029127;28;20061;-82
2022/07/09 03:45:48;;;;;;;15.32;14.43;;;20.20;58.00;;;;;;5030477;28;20496;-82
2022/07/09 03:48:14;;;;;;;15.88;14.90;;;20.30;57.80;;;;;;5046400;28;20021;-82
2022/07/09 03:50:41;;;;;;;16.52;15.48;;;20.40;57.60;;;;;;5027430;28;20038;-81
2022/07/09 03:53:07;;;;;;;16.95;15.63;;;20.30;58.00;;;;;;5018635;28;20476;-82
2022/07/09 03:55:33;;;;;;;17.65;16.52;;;20.20;58.00;;;;;;5017979;28;20046;-81
2022/07/09 03:57:59;;;;;;;19.15;17.92;;;20.20;58.30;;;;;;5034338;28;20029;-81
2022/07/09 04:00:25;;;;;;;18.73;17.73;;;20.10;58.70;;;;;;4996363;28;20037;-82
2022/07/09 04:02:51;;;;;;;17.08;16.08;;;20.00;59.00;;;;;;5013272;28;20049;-82
2022/07/09 04:05:17;;;;;;;14.98;14.05;;;20.00;58.80;;;;;;5029665;28;20041;-81
2022/07/09 04:07:43;;;;;;;15.02;14.02;;;20.00;58.80;;;;;;5028699;28;20040;-81
2022/07/09 04:10:10;;;;;;;15.50;14.50;;;19.90;59.10;;;;;;5045413;28;20048;-82
2022/07/09 04:12:36;;;;;;;15.73;14.73;;;19.90;59.20;;;;;;5030320;28;20025;-82
2022/07/09 04:15:03;;;;;;;14.90;13.90;;;19.80;59.30;;;;;;5028596;28;20045;-79
2022/07/09 04:17:29;;;;;;;14.85;13.85;;;19.70;59.70;;;;;;5032352;28;20396;-81
2022/07/09 04:19:55;;;;;;;15.68;14.77;;;19.60;60.60;;;;;;5043592;28;20029;-82
2022/07/09 04:22:21;;;;;;;15.57;14.55;;;19.60;59.90;;;;;;5044698;28;20036;-82
2022/07/09 04:24:47;;;;;;;15.90;14.70;;;19.70;59.70;;;;;;5030151;28;20380;-82
2022/07/09 04:27:13;;;;;;;16.95;15.95;;;19.70;59.90;;;;;;5030049;28;20030;-81
2022/07/09 04:29:39;;;;;;;16.98;15.80;;;19.60;60.10;;;;;;5031073;28;20064;-82
2022/07/09 04:32:06;;;;;;;15.82;14.70;;;19.70;59.80;;;;;;5018924;28;20037;-82
2022/07/09 04:34:32;;;;;;;14.65;13.77;;;19.70;59.70;;;;;;5023596;28;20030;-82
2022/07/09 04:36:58;;;;;;;14.98;14.07;;;19.60;59.90;;;;;;5045129;28;20033;-82
2022/07/09 04:39:24;;;;;;;15.00;14.05;;;19.70;59.90;;;;;;5029998;28;20033;-81
2022/07/09 04:41:51;;;;;;;14.07;13.10;;;19.70;59.70;;;;;;5029987;28;20033;-82
2022/07/09 04:44:17;;;;;;;13.85;12.85;;;19.60;60.20;;;;;;5028142;28;20052;-82
2022/07/09 04:46:43;;;;;;;13.02;12.23;;;19.40;60.80;;;;;;5044648;28;20038;-81
2022/07/09 04:49:10;;;;;;;13.65;12.75;;;19.40;61.00;;;;;;5028622;28;20022;-81
2022/07/09 04:51:36;;;;;;;13.40;12.40;;;19.40;61.10;;;;;;5029858;28;20026;-81
2022/07/09 04:54:02;;;;;;;13.60;12.60;;;19.40;61.30;;;;;;5028665;28;20048;-82
2022/07/09 04:56:28;;;;;;;13.55;12.52;;;19.30;61.70;;;;;;5030262;28;20037;-82
2022/07/09 04:58:55;;;;;;;14.93;14.02;;;19.20;62.00;;;;;;5018866;28;20041;-82
2022/07/09 05:01:21;;;;;;;14.60;13.70;;;19.20;62.20;;;;;;5016616;28;20026;-81
2022/07/09 05:03:48;;;;;;;14.88;13.98;;;19.10;62.70;;;;;;5033589;28;20041;-82
2022/07/09 05:06:18;;;;;;;13.57;12.88;;;19.20;62.50;;;;;;5034140;28;20034;-81
2022/07/09 05:08:44;;;;;;;12.07;11.48;;;19.20;62.50;;;;;;5024807;28;20044;-82
2022/07/09 05:11:10;;;;;;;13.15;12.18;;;19.10;62.80;;;;;;5029594;28;20095;-82
2022/07/09 05:13:37;;;;;;;13.93;12.85;;;19.10;63.20;;;;;;5028217;28;20025;-82
2022/07/09 05:16:06;;;;;;;13.75;12.73;;;19.30;62.70;;;;;;5042452;28;20034;-82
2022/07/09 05:18:33;;;;;;;13.50;12.75;;;19.40;62.30;;;;;;5031625;28;20030;-82
2022/07/09 05:20:59;;;;;;;14.45;13.65;;;19.60;61.30;;;;;;5044871;28;20041;-83
2022/07/09 05:23:25;;;;;;;15.40;14.50;;;19.60;61.50;;;;;;5045560;28;20041;-82
2022/07/09 05:25:51;;;;;;;15.85;14.80;;;19.50;62.00;;;;;;5044451;28;20044;-82
2022/07/09 05:28:17;;;;;;;14.95;14.15;;;19.60;61.70;;;;;;5025517;28;20326;-82
2022/07/09 05:30:43;;;;;;;14.50;13.50;;;19.80;61.10;;;;;;4999084;28;20041;-82
2022/07/09 05:33:09;;;;;;;14.23;13.40;;;19.80;60.90;;;;;;5046576;28;20025;-82
2022/07/09 05:35:35;;;;;;;13.10;12.40;;;19.90;60.90;;;;;;5034634;28;20040;-82
2022/07/09 05:38:02;;;;;;;14.07;13.27;;;20.00;60.40;;;;;;5037456;28;20472;-82
2022/07/09 05:40:28;;;;;;;14.55;13.75;;;20.10;60.20;;;;;;5017124;28;20032;-83
2022/07/09 05:42:54;;;;;;;15.38;14.38;;;20.40;59.90;;;;;;5033681;28;20474;-82
2022/07/09 05:45:20;;;;;;;14.57;13.68;;;20.60;58.90;;;;;;5014700;28;20046;-82
2022/07/09 05:47:46;;;;;;;14.30;13.40;;;20.70;58.50;;;;;;5049023;28;20032;-82
2022/07/09 05:50:12;;;;;;;14.13;13.40;;;20.70;59.30;;;;;;5020600;28;20030;-83
2022/07/09 05:52:38;;;;;;;14.40;13.20;;;20.80;58.50;;;;;;5020552;28;20396;-81
2022/07/09 05:55:05;;;;;;;15.13;14.02;;;20.80;58.60;;;;;;5036776;28;20045;-83
2022/07/09 05:57:31;;;;;;;15.65;14.65;;;21.10;58.10;;;;;;5018172;28;20392;-83
2022/07/09 05:59:58;;;;;;;15.63;14.52;;;21.20;57.70;;;;;;5033425;28;20026;-83
2022/07/09 06:02:24;;;;;;;15.00;14.20;;;21.10;57.60;;;;;;5020207;28;20041;-83
2022/07/09 06:04:50;;;;;;;16.23;15.32;;;21.30;57.70;;;;;;5045397;28;20041;-83
2022/07/09 06:07:16;;;;;;;15.70;14.88;;;21.40;57.20;;;;;;5031428;28;20029;-83
2022/07/09 06:09:42;;;;;;;15.60;14.75;;;21.50;56.80;;;;;;5031555;28;20044;-83
2022/07/09 06:12:08;;;;;;;15.88;14.98;;;21.50;56.70;;;;;;5048473;28;20496;-83
2022/07/09 06:14:34;;;;;;;16.80;15.90;;;21.60;56.60;;;;;;5033651;28;20052;-83
2022/07/09 06:17:07;;;;;;;17.05;16.05;;;21.80;56.60;;;;;;5032195;28;20503;-83
2022/07/09 06:19:36;;;;;;;16.73;15.52;;;21.90;56.00;;;;;;5026606;28;20034;-84
2022/07/09 06:22:03;;;;;;;17.08;16.17;;;21.90;55.90;;;;;;5022897;28;20483;-83
2022/07/09 06:24:29;;;;;;;17.80;16.80;;;22.10;55.80;;;;;;5031742;28;20048;-83
2022/07/09 06:26:56;;;;;;;19.17;17.88;;;22.20;55.60;;;;;;5031695;28;20045;-83
2022/07/09 06:29:22;;;;;;;18.80;17.80;;;22.40;55.30;;;;;;5050321;28;20028;-83
2022/07/09 06:31:48;;;;;;;20.45;19.35;;;22.40;55.00;;;;;;5026771;28;20404;-83
2022/07/09 06:34:14;;;;;;;18.40;17.40;;;22.40;55.00;;;;;;5028898;28;20455;-83
2022/07/09 06:36:44;;;;;;;18.20;17.20;;;22.20;55.30;;;;;;5033894;28;20046;-83
2022/07/09 06:42:06;;;;;;;19.38;18.05;;;22.30;55.40;;;;;;5033869;28;20048;-83
2022/07/09 06:44:33;;;;;;;19.35;18.05;;;22.40;55.00;;;;;;5017981;28;20363;-83
2022/07/09 06:46:59;;;;;;;18.88;17.83;;;22.40;55.30;;;;;;5047522;28;20049;-83
2022/07/09 06:49:25;;;;;;;18.55;17.63;;;22.40;55.00;;;;;;5048961;28;20036;-83
2022/07/09 06:51:51;;;;;;;19.70;18.60;;;22.50;54.90;;;;;;5030047;28;20040;-84
2022/07/09 06:54:17;;;;;;;18.80;17.75;;;22.80;54.60;;;;;;5014749;28;20480;-83
2022/07/09 06:56:43;;;;;;;20.00;18.90;;;23.00;54.50;;;;;;5031654;28;20041;-84
2022/07/09 06:59:10;;;;;;;19.92;18.83;;;23.20;53.80;;;;;;5047295;28;20037;-83
2022/07/09 07:01:36;;;;;;;21.63;20.33;;;23.30;53.30;;;;;;5023050;28;20392;-84
2022/07/09 07:04:02;;;;;;;20.98;19.83;;;23.50;53.10;;;;;;5022482;28;20359;-83
2022/07/09 07:06:28;;;;;;;22.55;21.15;;;23.60;52.60;;;;;;5046755;28;20041;-83
2022/07/09 07:08:54;;;;;;;22.65;21.30;;;23.70;52.90;;;;;;5014025;28;20042;-83
2022/07/09 07:11:21;;;;;;;22.42;21.17;;;23.90;51.80;;;;;;5019839;28;20037;-83
2022/07/09 07:13:47;;;;;;;23.48;22.23;;;23.90;51.80;;;;;;5044057;28;20419;-83
2022/07/09 07:16:14;;;;;;;24.67;23.45;;;23.80;51.80;;;;;;5046662;28;20030;-83
2022/07/09 07:18:40;;;;;;;23.63;22.42;;;23.90;52.10;;;;;;5046934;28;20029;-83
2022/07/09 07:21:06;;;;;;;24.00;22.30;;;24.00;51.70;;;;;;5046593;28;20513;-84
2022/07/09 07:23:32;;;;;;;24.52;23.23;;;24.00;51.50;;;;;;5030833;28;20033;-83
2022/07/09 07:25:59;;;;;;;23.92;22.52;;;24.10;51.50;;;;;;5046614;28;20496;-83
2022/07/09 07:28:25;;;;;;;23.63;22.33;;;24.10;51.40;;;;;;5029456;28;20551;-84
2022/07/09 07:30:51;;;;;;;23.40;22.10;;;24.30;50.90;;;;;;5029109;28;20112;-83
2022/07/09 07:33:17;;;;;;;24.65;23.45;;;24.40;50.80;;;;;;5016003;28;20022;-83
2022/07/09 07:35:44;;;;;;;26.08;24.60;;;24.50;50.50;;;;;;5047075;28;20090;-84
2022/07/09 07:38:10;;;;;;;24.30;22.80;;;24.70;50.40;;;;;;5035193;28;20088;-84
2022/07/09 07:40:36;;;;;;;27.30;25.88;;;24.90;49.90;;;;;;5001554;28;20412;-84
2022/07/09 07:43:05;;;;;;;27.25;25.73;;;25.00;49.50;;;;;;5021696;28;20033;-84
2022/07/09 07:45:31;;;;;;;27.80;26.33;;;24.90;49.60;;;;;;5029148;28;20033;-84
2022/07/09 07:47:58;;;;;;;26.35;24.85;;;25.00;49.50;;;;;;5030283;28;20397;-84
2022/07/09 07:50:24;;;;;;;27.30;25.75;;;25.10;49.30;;;;;;5031357;28;20503;-84
2022/07/09 07:52:50;;;;;;;28.83;27.20;;;25.10;49.40;;;;;;5029471;28;20033;-84
2022/07/09 07:55:16;;;;;;;28.52;27.02;;;25.20;49.40;;;;;;5045826;28;20036;-84
2022/07/09 07:57:42;;;;;;;29.40;27.75;;;25.40;49.20;;;;;;5030665;28;20471;-85
2022/07/09 08:00:09;;;;;;;28.23;26.50;;;25.70;48.90;;;;;;5029209;28;20040;-84
2022/07/09 08:02:35;;;;;;;29.60;28.00;;;25.80;48.60;;;;;;5031665;28;20026;-85
2022/07/09 08:05:01;;;;;;;29.30;27.77;;;26.00;47.50;;;;;;5011979;28;20369;-84
2022/07/09 08:07:27;;;;;;;30.48;28.67;;;25.90;47.40;;;;;;5028836;28;20045;-84
2022/07/09 08:09:53;;;;;;;31.50;29.70;;;25.80;48.00;;;;;;5029538;28;20503;-84
2022/07/09 08:12:19;;;;;;;31.67;30.00;;;25.90;48.10;;;;;;5015430;28;20045;-84
2022/07/09 08:14:46;;;;;;;31.60;29.95;;;26.00;48.00;;;;;;5046499;28;20029;-84
2022/07/09 08:17:12;;;;;;;31.33;29.52;;;26.00;47.70;;;;;;5031858;28;20431;-84
2022/07/09 08:19:38;;;;;;;34.30;32.50;;;26.00;47.60;;;;;;5016731;28;20487;-84
2022/07/09 08:22:04;;;;;;;32.08;30.27;;;26.10;47.80;;;;;;5030711;28;20044;-84
2022/07/09 08:24:30;;;;;;;34.22;32.35;;;26.30;47.30;;;;;;4994949;28;20041;-85
2022/07/09 08:26:58;;;;;;;33.85;31.38;;;26.40;47.00;;;;;;5031378;28;20037;-85
2022/07/09 08:29:25;;;;;;;33.78;31.90;;;26.50;47.00;;;;;;5035256;28;20028;-84
2022/07/09 08:31:51;;;;;;;36.88;34.63;;;26.60;47.20;;;;;;5013558;28;20037;-84
2022/07/09 08:34:17;;;;;;;33.47;31.77;;;26.80;47.00;;;;;;5037365;28;20079;-84
2022/07/09 08:36:44;;;;;;;32.83;30.92;;;27.00;45.90;;;;;;5044420;28;20051;-84
2022/07/09 08:39:10;;;;;;;38.33;36.33;;;27.20;45.70;;;;;;5012962;28;20092;-85
2022/07/09 08:41:36;;;;;;;34.90;32.95;;;27.40;45.40;;;;;;5034922;28;20025;-85
2022/07/09 08:44:03;;;;;;;34.42;32.53;;;27.30;45.40;;;;;;5034230;28;20040;-84
2022/07/09 08:46:29;;;;;;;35.83;33.97;;;27.30;45.20;;;;;;5013472;28;20037;-85
2022/07/09 08:48:55;;;;;;;33.80;31.90;;;27.50;45.10;;;;;;5013630;28;20048;-85
2022/07/09 08:51:22;;;;;;;33.05;31.15;;;27.60;44.90;;;;;;5012452;28;20030;-84
2022/07/09 08:53:48;;;;;;;40.22;37.90;;;27.40;44.60;;;;;;5016192;28;20033;-84
2022/07/09 08:56:14;;;;;;;38.95;36.85;;;27.60;45.30;;;;;;5033429;28;20036;-85
2022/07/09 08:58:40;;;;;;;39.50;37.40;;;27.90;44.50;;;;;;5030263;28;20049;-84
2022/07/09 09:01:07;;;;;;;38.85;36.45;;;28.00;44.10;;;;;;5033495;28;20047;-84
2022/07/09 09:03:33;;;;;;;41.05;38.35;;;28.10;43.30;;;;;;5011450;28;20464;-85
2022/07/09 09:06:07;;;;;;;38.20;35.60;;;28.20;43.10;;;;;;5041026;28;20312;-84
2022/07/09 09:08:37;;;;;;;36.40;34.50;;;28.30;43.20;;;;;;5032217;28;20431;-85
2022/07/09 09:11:04;;;;;;;34.27;32.37;;;28.40;43.50;;;;;;5013990;28;20037;-85
2022/07/09 09:13:30;;;;;;;39.42;37.42;;;28.30;43.00;;;;;;5016532;28;20045;-84
2022/07/09 09:16:04;;;;;;;40.33;38.22;;;28.50;43.00;;;;;;5012781;28;20046;-83
2022/07/09 09:18:30;;;;;;;41.50;39.20;;;28.50;41.80;;;;;;5029740;28;20029;-85
2022/07/09 09:21:06;;;;;;;40.00;37.70;;;28.50;41.60;;;;;;5033536;28;20033;-84
2022/07/09 09:23:59;;;;;;;40.63;38.38;;;28.60;42.20;;;;;;5016599;28;20030;-84
2022/07/09 09:26:26;;;;;;;41.40;39.25;;;28.80;41.90;;;;;;5034683;28;20054;-85
2022/07/09 09:28:53;;;;;;;44.47;42.28;;;28.80;41.80;;;;;;5036349;28;20381;-85
2022/07/09 09:31:24;;;;;;;46.00;43.50;;;28.90;42.00;;;;;;5032491;28;20049;-85
2022/07/09 09:33:51;;;;;;;42.33;40.13;;;29.10;41.80;;;;;;5016925;28;20033;-85
2022/07/09 09:36:36;;;;;;;40.97;38.80;;;29.30;40.80;;;;;;5045479;28;20030;-85
2022/07/09 09:39:21;;;;;;;44.28;41.38;;;29.10;41.10;;;;;;5029722;28;20431;-85
2022/07/09 09:41:49;;;;;;;40.45;38.00;;;29.00;40.70;;;;;;5041011;28;20028;-85
2022/07/09 09:44:40;;;;;;;41.92;39.83;;;29.00;40.50;;;;;;5028778;28;20025;-85
2022/07/09 09:47:07;;;;;;;39.65;37.55;;;28.90;40.90;;;;;;5032430;28;20052;-85
2022/07/09 09:49:34;;;;;;;44.50;41.80;;;29.00;41.20;;;;;;5030130;28;20137;-85
2022/07/09 09:52:07;;;;;;;45.75;43.42;;;29.20;40.20;;;;;;5000109;28;20065;-85
2022/07/09 09:54:38;;;;;;;42.22;39.92;;;29.30;41.00;;;;;;5028345;28;20034;-85
2022/07/09 09:57:09;;;;;;;44.13;41.83;;;29.50;39.90;;;;;;5029047;28;20068;-85
2022/07/09 09:59:39;;;;;;;1999.90;999.90;;;29.50;39.00;;;;;;5033085;28;20033;-85
2022/07/09 10:02:09;;;;;;;1023.50;522.22;;;29.50;38.40;;;;;;5012440;28;20052;-85
2022/07/09 10:04:44;;;;;;;48.88;46.45;;;29.60;38.30;;;;;;5013477;28;20049;-86
2022/07/09 10:07:14;;;;;;;50.13;47.05;;;29.60;39.20;;;;;;5013078;28;20049;-86
2022/07/09 10:09:40;;;;;;;47.47;44.80;;;29.50;39.00;;;;;;5012423;28;20048;-85
2022/07/09 10:12:09;;;;;;;1023.30;522.03;;;29.50;38.80;;;;;;5028169;28;20034;-85
2022/07/09 10:14:36;;;;;;;1999.90;999.90;;;29.60;38.30;;;;;;5016566;28;20022;-85
2022/07/09 10:17:14;;;;;;;1999.90;999.90;;;29.80;37.10;;;;;;5015532;28;20045;-85
2022/07/09 10:19:51;;;;;;;1999.90;999.90;;;29.90;36.90;;;;;;4997017;28;20538;-85
2022/07/09 10:22:17;;;;;;;1999.90;999.90;;;29.90;36.90;;;;;;5036893;28;20029;-85
2022/07/09 10:24:44;;;;;;;1999.90;999.90;;;29.90;37.20;;;;;;5018878;28;20041;-86
2022/07/09 10:27:11;;;;;;;1999.90;999.90;;;30.00;37.00;;;;;;5014977;28;20041;-86
2022/07/09 10:29:53;;;;;;;1999.90;999.90;;;29.90;37.00;;;;;;5019623;28;20026;-86
2022/07/09 10:32:32;;;;;;;1999.90;999.90;;;30.00;36.90;;;;;;5018038;28;20483;-86
2022/07/09 10:34:59;;;;;;;1999.90;999.90;;;29.80;37.20;;;;;;5027999;28;20503;-85
2022/07/09 10:37:32;;;;;;;49.33;46.78;;;29.80;36.90;;;;;;5041287;28;20037;-86
2022/07/09 10:40:27;;;;;;;46.85;44.38;;;29.50;37.70;;;;;;5019576;28;20033;-85
2022/07/09 10:43:00;;;;;;;1033.95;532.15;;;29.70;37.90;;;;;;5033726;28;20387;-86
2022/07/09 10:45:28;;;;;;;43.45;41.17;;;29.70;37.20;;;;;;5033194;28;20047;-86
2022/07/09 10:47:55;;;;;;;45.28;42.88;;;29.80;37.40;;;;;;5033614;28;20029;-85
2022/07/09 10:50:22;;;;;;;1999.90;999.90;;;29.80;37.40;;;;;;5003198;28;20048;-85
2022/07/09 10:52:49;;;;;;;46.47;44.03;;;29.90;36.80;;;;;;5035959;28;20041;-86
2022/07/09 10:55:19;;;;;;;1999.90;999.90;;;29.80;37.40;;;;;;5002305;28;20052;-85
2022/07/09 10:57:45;;;;;;;1999.90;999.90;;;30.00;37.40;;;;;;5047124;28;20030;-85
2022/07/09 11:00:20;;;;;;;1999.90;999.90;;;30.20;36.80;;;;;;5031534;28;20045;-85
2022/07/09 11:02:55;;;;;;;1999.90;999.90;;;30.20;36.00;;;;;;5027681;28;20028;-85
2022/07/09 11:05:23;;;;;;;1999.90;999.90;;;30.30;36.20;;;;;;5019168;28;20049;-85
2022/07/09 11:08:02;;;;;;;1999.90;999.90;;;30.30;34.80;;;;;;5034819;28;20523;-85
2022/07/09 11:10:30;;;;;;;1999.90;999.90;;;30.30;35.60;;;;;;5032242;28;20033;-85
2022/07/09 11:12:58;;;;;;;1999.90;999.90;;;30.40;36.00;;;;;;5001998;28;20045;-86
2022/07/09 11:15:26;;;;;;;1999.90;999.90;;;30.50;36.00;;;;;;5014585;28;20052;-85
2022/07/09 11:18:08;;;;;;;1999.90;999.90;;;30.50;35.70;;;;;;5033446;28;20376;-86
2022/07/09 11:20:45;;;;;;;1999.90;999.90;;;30.40;35.30;;;;;;5019372;28;20408;-85
2022/07/09 11:23:12;;;;;;;1999.90;999.90;;;30.50;36.10;;;;;;5036211;28;20056;-85
2022/07/09 11:25:38;;;;;;;1999.90;999.90;;;30.50;35.30;;;;;;5001998;28;20056;-86
2022/07/09 11:28:04;;;;;;;1999.90;999.90;;;30.50;36.10;;;;;;5015099;28;20033;-85
2022/07/09 11:30:32;;;;;;;1999.90;999.90;;;30.50;36.40;;;;;;5012431;28;20056;-85
2022/07/09 11:32:58;;;;;;;1999.90;999.90;;;30.50;36.80;;;;;;5016158;28;20045;-85
2022/07/09 11:35:34;;;;;;;1999.90;999.90;;;30.70;36.70;;;;;;5030836;28;20036;-85
2022/07/09 11:38:01;;;;;;;1999.90;999.90;;;30.70;36.00;;;;;;5018905;28;20038;-84
2022/07/09 11:40:27;;;;;;;1999.90;999.90;;;30.70;35.50;;;;;;5001717;28;20033;-85
2022/07/09 11:42:53;;;;;;;1999.90;999.90;;;30.50;34.90;;;;;;5001043;28;20041;-85
2022/07/09 11:45:27;;;;;;;1999.90;999.90;;;30.40;35.00;;;;;;4997214;28;20056;-85
2022/07/09 11:48:06;;;;;;;1999.90;999.90;;;30.30;35.60;;;;;;5000809;28;20045;-85
2022/07/09 11:50:33;;;;;;;1999.90;999.90;;;30.40;35.90;;;;;;5014370;28;20030;-85
2022/07/09 11:52:59;;;;;;;1999.90;999.90;;;30.60;36.60;;;;;;5012673;28;20072;-85
2022/07/09 11:55:30;;;;;;;1999.90;999.90;;;30.90;36.30;;;;;;4997937;28;20106;-86
2022/07/09 11:58:02;;;;;;;1999.90;999.90;;;31.20;35.10;;;;;;5007863;28;20028;-85
2022/07/09 12:00:29;;;;;;;1999.90;999.90;;;31.40;34.50;;;;;;5015532;28;20026;-85
2022/07/09 12:02:56;;;;;;;1999.90;999.90;;;31.50;33.50;;;;;;4999931;28;20037;-85
2022/07/09 12:05:40;;;;;;;1999.90;999.90;;;31.30;33.90;;;;;;5036978;28;20033;-85
2022/07/09 12:08:07;;;;;;;1999.90;999.90;;;31.30;33.70;;;;;;5017857;28;20049;-86
2022/07/09 12:10:35;;;;;;;1999.90;999.90;;;31.30;33.50;;;;;;5036556;28;20033;-85
2022/07/09 12:13:01;;;;;;;1999.90;999.90;;;31.30;33.80;;;;;;5018778;28;20047;-86
2022/07/09 12:15:27;;;;;;;1999.90;999.90;;;31.40;33.70;;;;;;5015442;28;20036;-86
2022/07/09 12:17:57;;;;;;;1999.90;999.90;;;31.40;32.90;;;;;;5015942;28;20048;-85
2022/07/09 12:20:28;;;;;;;1999.90;999.90;;;31.40;33.70;;;;;;5018261;28;20467;-86
2022/07/09 12:22:54;;;;;;;1999.90;999.90;;;31.40;33.00;;;;;;5030624;28;20033;-85
2022/07/09 12:25:20;;;;;;;1999.90;999.90;;;31.20;32.70;;;;;;5013984;28;20491;-85
2022/07/09 12:27:47;;;;;;;1999.90;999.90;;;31.20;32.30;;;;;;5014353;28;20029;-85